sensor_id;sensor_type;location;lat;lon;timestamp;pressure;altitude;pressure_sealevel;temperature;humidity
64025;BME280;50266;57.446;26.936;2023-02-19T00:00:57;96696.28;;;-0.83;100.0
64025;BME280;50266;57.446;26.936;2023-02-19T00:01:57;96703.3;;;-0.82;100.0
64025;BME280;50266;57.446;26.936;2023-02-19T00:02:57;96708.22;;;-0.83;100.0
64025;BME280;50266;57.446;26.936;2023-02-19T00:03:58;96701.45;;;-0.84;100.0
64025;BME280;50266;57.446;26.936;2023-02-19T00:04:57;96694.46;;;-0.83;100.0
64025;BME280;50266;57.446;26.936;2023-02-19T00:05:59;96710.69;;;-0.83;100.0
64025;BME280;50266;57.446;26.936;2023-02-19T00:06:57;96708.34;;;-0.84;100.0
64025;BME280;50266;57.446;26.936;2023-02-19T00:07:57;96708.27;;;-0.82;100.0
64025;BME280;50266;57.446;26.936;2023-02-19T00:08:57;96711.37;;;-0.84;100.0
64025;BME280;50266;57.446;26.936;2023-02-19T00:09:57;96708.33;;;-0.87;100.0
64025;BME280;50266;57.446;26.936;2023-02-19T00:11:01;96708.58;;;-0.85;100.0
64025;BME280;50266;57.446;26.936;2023-02-19T00:11:57;96711.83;;;-0.83;100.0
64025;BME280;50266;57.446;26.936;2023-02-19T00:12:57;96713.62;;;-0.83;100.0
64025;BME280;50266;57.446;26.936;2023-02-19T00:13:58;96707.83;;;-0.83;100.0
64025;BME280;50266;57.446;26.936;2023-02-19T00:14:57;96708.38;;;-0.83;100.0
64025;BME280;50266;57.446;26.936;2023-02-19T00:15:57;96711.34;;;-0.83;100.0
64025;BME280;50266;57.446;26.936;2023-02-19T00:16:57;96709.25;;;-0.84;100.0
64025;BME280;50266;57.446;26.936;2023-02-19T00:17:57;96727.5;;;-0.84;100.0
64025;BME280;50266;57.446;26.936;2023-02-19T00:18:58;96715.39;;;-0.81;100.0
64025;BME280;50266;57.446;26.936;2023-02-19T00:19:57;96718.52;;;-0.82;100.0
64025;BME280;50266;57.446;26.936;2023-02-19T00:20:57;96719.73;;;-0.85;100.0
64025;BME280;50266;57.446;26.936;2023-02-19T00:21:57;96719.56;;;-0.85;100.0
64025;BME280;50266;57.446;26.936;2023-02-19T00:22:57;96716.59;;;-0.86;100.0
64025;BME280;50266;57.446;26.936;2023-02-19T00:23:59;96724.8;;;-0.86;100.0
64025;BME280;50266;57.446;26.936;2023-02-19T00:24:57;96718.75;;;-0.87;100.0
64025;BME280;50266;57.446;26.936;2023-02-19T00:26:04;96696.31;;;-0.86;100.0
64025;BME280;50266;57.446;26.936;2023-02-19T00:26:58;96715.87;;;-0.86;100.0
64025;BME280;50266;57.446;26.936;2023-02-19T00:27:58;96732.93;;;-0.87;100.0
64025;BME280;50266;57.446;26.936;2023-02-19T00:28:59;96714.64;;;-0.88;100.0
64025;BME280;50266;57.446;26.936;2023-02-19T00:29:58;96718.29;;;-0.86;100.0
64025;BME280;50266;57.446;26.936;2023-02-19T00:31:08;96719.5;;;-0.88;100.0
64025;BME280;50266;57.446;26.936;2023-02-19T00:32:00;96723.73;;;-0.87;100.0
64025;BME280;50266;57.446;26.936;2023-02-19T00:33:00;96723.73;;;-0.87;100.0
64025;BME280;50266;57.446;26.936;2023-02-19T00:35:41;96706.23;;;-1.1;100.0
64025;BME280;50266;57.446;26.936;2023-02-19T00:38:53;96705.36;;;-1.13;100.0
64025;BME280;50266;57.446;26.936;2023-02-19T00:40:43;96701.58;;;-1.14;100.0
64025;BME280;50266;57.446;26.936;2023-02-19T00:41:43;96717.62;;;-0.98;100.0
64025;BME280;50266;57.446;26.936;2023-02-19T00:42:43;96719.64;;;-0.95;100.0
64025;BME280;50266;57.446;26.936;2023-02-19T00:43:44;96722.75;;;-0.92;100.0
64025;BME280;50266;57.446;26.936;2023-02-19T00:45:08;96699.48;;;-1.06;100.0
64025;BME280;50266;57.446;26.936;2023-02-19T00:46:08;96725.05;;;-0.9;100.0
64025;BME280;50266;57.446;26.936;2023-02-19T00:47:08;96744.73;;;-0.89;100.0
64025;BME280;50266;57.446;26.936;2023-02-19T00:48:08;96722.64;;;-0.87;100.0
64025;BME280;50266;57.446;26.936;2023-02-19T00:49:12;96720.67;;;-0.88;100.0
64025;BME280;50266;57.446;26.936;2023-02-19T00:50:09;96732.38;;;-0.88;100.0
64025;BME280;50266;57.446;26.936;2023-02-19T00:51:09;96740.89;;;-0.87;100.0
64025;BME280;50266;57.446;26.936;2023-02-19T00:52:09;96721.95;;;-0.82;100.0
64025;BME280;50266;57.446;26.936;2023-02-19T00:53:09;96726.59;;;-0.83;100.0
64025;BME280;50266;57.446;26.936;2023-02-19T00:54:09;96737.46;;;-0.84;100.0
64025;BME280;50266;57.446;26.936;2023-02-19T00:55:09;96722.45;;;-0.84;100.0
64025;BME280;50266;57.446;26.936;2023-02-19T00:56:09;96749.12;;;-0.85;100.0
64025;BME280;50266;57.446;26.936;2023-02-19T00:57:09;96739.14;;;-0.84;100.0
64025;BME280;50266;57.446;26.936;2023-02-19T00:58:09;96745.31;;;-0.87;100.0
64025;BME280;50266;57.446;26.936;2023-02-19T00:59:09;96735.75;;;-0.88;100.0
64025;BME280;50266;57.446;26.936;2023-02-19T01:00:09;96748.06;;;-0.85;100.0
64025;BME280;50266;57.446;26.936;2023-02-19T01:01:09;96739.75;;;-0.85;100.0
64025;BME280;50266;57.446;26.936;2023-02-19T01:02:09;96750.81;;;-0.88;100.0
64025;BME280;50266;57.446;26.936;2023-02-19T01:03:09;96748.64;;;-0.87;100.0
64025;BME280;50266;57.446;26.936;2023-02-19T01:04:09;96740.3;;;-0.86;100.0
64025;BME280;50266;57.446;26.936;2023-02-19T01:05:09;96742.92;;;-0.88;100.0
64025;BME280;50266;57.446;26.936;2023-02-19T01:06:09;96749.48;;;-0.88;100.0
64025;BME280;50266;57.446;26.936;2023-02-19T01:07:09;96748.23;;;-0.87;100.0
64025;BME280;50266;57.446;26.936;2023-02-19T01:08:09;96751.92;;;-0.87;100.0
64025;BME280;50266;57.446;26.936;2023-02-19T01:09:09;96753.39;;;-0.87;100.0
64025;BME280;50266;57.446;26.936;2023-02-19T01:10:09;96751.58;;;-0.85;100.0
64025;BME280;50266;57.446;26.936;2023-02-19T01:11:09;96745.52;;;-0.84;100.0
64025;BME280;50266;57.446;26.936;2023-02-19T01:12:09;96752.88;;;-0.83;100.0
64025;BME280;50266;57.446;26.936;2023-02-19T01:13:09;96745.9;;;-0.87;100.0
64025;BME280;50266;57.446;26.936;2023-02-19T01:14:09;96749.92;;;-0.88;100.0
64025;BME280;50266;57.446;26.936;2023-02-19T01:15:09;96749.17;;;-0.86;100.0
64025;BME280;50266;57.446;26.936;2023-02-19T01:16:13;96744.06;;;-0.88;100.0
64025;BME280;50266;57.446;26.936;2023-02-19T01:17:10;96745.57;;;-0.87;100.0
64025;BME280;50266;57.446;26.936;2023-02-19T01:18:10;96750.55;;;-0.88;100.0
64025;BME280;50266;57.446;26.936;2023-02-19T01:19:10;96764.98;;;-0.86;100.0
64025;BME280;50266;57.446;26.936;2023-02-19T01:20:10;96751.06;;;-0.86;100.0
64025;BME280;50266;57.446;26.936;2023-02-19T01:21:17;96744.58;;;-0.89;100.0
64025;BME280;50266;57.446;26.936;2023-02-19T01:22:14;96741.48;;;-0.89;100.0
64025;BME280;50266;57.446;26.936;2023-02-19T01:23:14;96751.44;;;-0.88;100.0
64025;BME280;50266;57.446;26.936;2023-02-19T01:24:14;96749.27;;;-0.88;100.0
64025;BME280;50266;57.446;26.936;2023-02-19T01:25:14;96742.52;;;-0.87;100.0
64025;BME280;50266;57.446;26.936;2023-02-19T01:26:18;96759.22;;;-0.89;100.0
64025;BME280;50266;57.446;26.936;2023-02-19T01:27:15;96755.94;;;-0.88;100.0
64025;BME280;50266;57.446;26.936;2023-02-19T01:28:15;96760.19;;;-0.88;100.0
64025;BME280;50266;57.446;26.936;2023-02-19T01:29:15;96762.7;;;-0.88;100.0
64025;BME280;50266;57.446;26.936;2023-02-19T01:30:15;96757.49;;;-0.88;100.0
64025;BME280;50266;57.446;26.936;2023-02-19T01:31:17;96764.41;;;-0.88;100.0
64025;BME280;50266;57.446;26.936;2023-02-19T01:32:15;96767.25;;;-0.9;100.0
64025;BME280;50266;57.446;26.936;2023-02-19T01:33:15;96753.25;;;-0.88;100.0
64025;BME280;50266;57.446;26.936;2023-02-19T01:34:15;96739.22;;;-0.88;100.0
64025;BME280;50266;57.446;26.936;2023-02-19T01:35:15;96768.71;;;-0.88;100.0
64025;BME280;50266;57.446;26.936;2023-02-19T01:36:15;96762.36;;;-0.9;100.0
64025;BME280;50266;57.446;26.936;2023-02-19T01:37:15;96765.65;;;-0.91;100.0
64025;BME280;50266;57.446;26.936;2023-02-19T01:38:15;96769.94;;;-0.92;100.0
64025;BME280;50266;57.446;26.936;2023-02-19T01:39:15;96769.34;;;-0.92;100.0
64025;BME280;50266;57.446;26.936;2023-02-19T01:40:15;96773.82;;;-0.93;100.0
64025;BME280;50266;57.446;26.936;2023-02-19T01:41:16;96770.91;;;-0.92;100.0
64025;BME280;50266;57.446;26.936;2023-02-19T01:42:15;96765.21;;;-0.94;100.0
64025;BME280;50266;57.446;26.936;2023-02-19T01:43:15;96777.89;;;-0.93;100.0
64025;BME280;50266;57.446;26.936;2023-02-19T01:45:29;96763.32;;;-0.92;100.0
64025;BME280;50266;57.446;26.936;2023-02-19T01:46:23;96762.77;;;-0.92;100.0
64025;BME280;50266;57.446;26.936;2023-02-19T01:47:21;96774.08;;;-0.94;100.0
64025;BME280;50266;57.446;26.936;2023-02-19T01:48:25;96774.48;;;-0.96;100.0
64025;BME280;50266;57.446;26.936;2023-02-19T01:49:33;96779.44;;;-0.95;100.0
64025;BME280;50266;57.446;26.936;2023-02-19T01:50:27;96781.0;;;-0.98;100.0
64025;BME280;50266;57.446;26.936;2023-02-19T01:51:26;96792.63;;;-0.96;100.0
64025;BME280;50266;57.446;26.936;2023-02-19T01:52:28;96779.72;;;-0.96;100.0
64025;BME280;50266;57.446;26.936;2023-02-19T01:53:27;96775.11;;;-0.98;100.0
64025;BME280;50266;57.446;26.936;2023-02-19T01:54:27;96780.48;;;-0.97;100.0
64025;BME280;50266;57.446;26.936;2023-02-19T01:55:26;96775.14;;;-0.98;100.0
64025;BME280;50266;57.446;26.936;2023-02-19T01:56:26;96782.28;;;-0.97;100.0
64025;BME280;50266;57.446;26.936;2023-02-19T01:57:27;96780.16;;;-0.98;100.0
64025;BME280;50266;57.446;26.936;2023-02-19T01:58:27;96784.95;;;-0.99;100.0
64025;BME280;50266;57.446;26.936;2023-02-19T01:59:26;96790.52;;;-0.98;100.0
64025;BME280;50266;57.446;26.936;2023-02-19T02:00:26;96783.42;;;-0.97;100.0
64025;BME280;50266;57.446;26.936;2023-02-19T02:01:26;96776.44;;;-0.98;100.0
64025;BME280;50266;57.446;26.936;2023-02-19T02:02:26;96790.52;;;-0.98;100.0
64025;BME280;50266;57.446;26.936;2023-02-19T02:03:26;96785.89;;;-0.98;100.0
64025;BME280;50266;57.446;26.936;2023-02-19T02:04:26;96784.63;;;-1.0;100.0
64025;BME280;50266;57.446;26.936;2023-02-19T02:05:31;96797.73;;;-0.99;100.0
64025;BME280;50266;57.446;26.936;2023-02-19T02:06:36;96785.56;;;-0.98;100.0
64025;BME280;50266;57.446;26.936;2023-02-19T02:07:34;96781.59;;;-0.99;100.0
64025;BME280;50266;57.446;26.936;2023-02-19T02:08:34;96790.59;;;-1.0;100.0
64025;BME280;50266;57.446;26.936;2023-02-19T02:09:31;96776.17;;;-1.12;100.0
64025;BME280;50266;57.446;26.936;2023-02-19T02:12:58;96778.34;;;-1.24;100.0
64025;BME280;50266;57.446;26.936;2023-02-19T02:13:58;96788.41;;;-1.08;100.0
64025;BME280;50266;57.446;26.936;2023-02-19T02:14:58;96798.55;;;-1.05;100.0
64025;BME280;50266;57.446;26.936;2023-02-19T02:16:00;96800.37;;;-1.02;100.0
64025;BME280;50266;57.446;26.936;2023-02-19T02:21:19;96804.34;;;-1.03;100.0
64025;BME280;50266;57.446;26.936;2023-02-19T02:22:18;96818.92;;;-1.02;100.0
64025;BME280;50266;57.446;26.936;2023-02-19T02:23:21;96804.51;;;-1.0;100.0
64025;BME280;50266;57.446;26.936;2023-02-19T02:25:31;96817.93;;;-1.05;100.0
64025;BME280;50266;57.446;26.936;2023-02-19T02:28:41;96820.02;;;-1.06;100.0
64025;BME280;50266;57.446;26.936;2023-02-19T02:31:40;96822.14;;;-1.08;100.0
64025;BME280;50266;57.446;26.936;2023-02-19T02:32:39;96814.74;;;-1.07;100.0
64025;BME280;50266;57.446;26.936;2023-02-19T02:33:49;96818.84;;;-1.09;100.0
64025;BME280;50266;57.446;26.936;2023-02-19T02:34:47;96805.09;;;-1.08;100.0
64025;BME280;50266;57.446;26.936;2023-02-19T02:35:58;96819.33;;;-1.07;100.0
64025;BME280;50266;57.446;26.936;2023-02-19T02:36:42;96822.49;;;-1.07;100.0
64025;BME280;50266;57.446;26.936;2023-02-19T02:37:41;96815.7;;;-1.08;100.0
64025;BME280;50266;57.446;26.936;2023-02-19T02:38:42;96822.36;;;-1.08;100.0
64025;BME280;50266;57.446;26.936;2023-02-19T02:39:41;96808.74;;;-1.1;100.0
64025;BME280;50266;57.446;26.936;2023-02-19T02:40:42;96820.68;;;-1.09;100.0
64025;BME280;50266;57.446;26.936;2023-02-19T02:41:42;96817.59;;;-1.11;100.0
64025;BME280;50266;57.446;26.936;2023-02-19T02:44:17;96791.31;;;-1.33;100.0
64025;BME280;50266;57.446;26.936;2023-02-19T02:45:22;96831.44;;;-1.16;100.0
64025;BME280;50266;57.446;26.936;2023-02-19T02:46:23;96824.02;;;-1.15;100.0
64025;BME280;50266;57.446;26.936;2023-02-19T02:47:22;96816.98;;;-1.15;100.0
64025;BME280;50266;57.446;26.936;2023-02-19T02:48:38;96823.94;;;-1.16;100.0
64025;BME280;50266;57.446;26.936;2023-02-19T02:49:26;96819.82;;;-1.16;100.0
64025;BME280;50266;57.446;26.936;2023-02-19T02:50:29;96812.38;;;-1.15;100.0
64025;BME280;50266;57.446;26.936;2023-02-19T02:51:37;96824.41;;;-1.15;100.0
64025;BME280;50266;57.446;26.936;2023-02-19T02:52:32;96838.27;;;-1.15;100.0
64025;BME280;50266;57.446;26.936;2023-02-19T02:53:44;96834.16;;;-1.16;100.0
64025;BME280;50266;57.446;26.936;2023-02-19T02:54:36;96829.02;;;-1.16;100.0
64025;BME280;50266;57.446;26.936;2023-02-19T02:55:37;96833.64;;;-1.14;100.0
64025;BME280;50266;57.446;26.936;2023-02-19T02:56:36;96835.67;;;-1.15;100.0
64025;BME280;50266;57.446;26.936;2023-02-19T02:57:36;96822.55;;;-1.15;100.0
64025;BME280;50266;57.446;26.936;2023-02-19T02:58:36;96845.0;;;-1.15;100.0
64025;BME280;50266;57.446;26.936;2023-02-19T02:59:37;96831.41;;;-1.17;100.0
64025;BME280;50266;57.446;26.936;2023-02-19T03:00:36;96843.77;;;-1.16;100.0
64025;BME280;50266;57.446;26.936;2023-02-19T03:01:46;96841.18;;;-1.15;100.0
64025;BME280;50266;57.446;26.936;2023-02-19T03:02:40;96833.73;;;-1.16;100.0
64025;BME280;50266;57.446;26.936;2023-02-19T03:03:40;96844.2;;;-1.17;100.0
64025;BME280;50266;57.446;26.936;2023-02-19T03:04:43;96835.69;;;-1.16;100.0
64025;BME280;50266;57.446;26.936;2023-02-19T03:05:42;96853.7;;;-1.17;100.0
64025;BME280;50266;57.446;26.936;2023-02-19T03:06:42;96845.79;;;-1.16;100.0
64025;BME280;50266;57.446;26.936;2023-02-19T03:08:54;96846.11;;;-1.18;100.0
64025;BME280;50266;57.446;26.936;2023-02-19T03:09:47;96845.0;;;-1.17;100.0
64025;BME280;50266;57.446;26.936;2023-02-19T03:10:48;96848.23;;;-1.19;100.0
64025;BME280;50266;57.446;26.936;2023-02-19T03:11:48;96847.46;;;-1.18;100.0
64025;BME280;50266;57.446;26.936;2023-02-19T03:12:46;96853.58;;;-1.2;100.0
64025;BME280;50266;57.446;26.936;2023-02-19T03:13:46;96848.34;;;-1.19;100.0
64025;BME280;50266;57.446;26.936;2023-02-19T03:14:50;96846.46;;;-1.19;100.0
64025;BME280;50266;57.446;26.936;2023-02-19T03:15:50;96868.05;;;-1.21;100.0
64025;BME280;50266;57.446;26.936;2023-02-19T03:16:48;96853.72;;;-1.21;100.0
64025;BME280;50266;57.446;26.936;2023-02-19T03:17:50;96863.08;;;-1.21;100.0
64025;BME280;50266;57.446;26.936;2023-02-19T03:18:49;96860.56;;;-1.21;100.0
64025;BME280;50266;57.446;26.936;2023-02-19T03:19:49;96867.8;;;-1.21;100.0
64025;BME280;50266;57.446;26.936;2023-02-19T03:20:50;96868.22;;;-1.21;100.0
64025;BME280;50266;57.446;26.936;2023-02-19T03:21:51;96872.52;;;-1.19;100.0
64025;BME280;50266;57.446;26.936;2023-02-19T03:22:49;96865.66;;;-1.21;100.0
64025;BME280;50266;57.446;26.936;2023-02-19T03:23:49;96862.75;;;-1.23;100.0
64025;BME280;50266;57.446;26.936;2023-02-19T03:24:51;96871.44;;;-1.24;100.0
64025;BME280;50266;57.446;26.936;2023-02-19T03:25:49;96856.45;;;-1.23;100.0
64025;BME280;50266;57.446;26.936;2023-02-19T03:26:50;96874.92;;;-1.24;100.0
64025;BME280;50266;57.446;26.936;2023-02-19T03:27:50;96865.97;;;-1.26;100.0
64025;BME280;50266;57.446;26.936;2023-02-19T03:28:50;96878.11;;;-1.26;100.0
64025;BME280;50266;57.446;26.936;2023-02-19T03:29:50;96865.22;;;-1.24;100.0
64025;BME280;50266;57.446;26.936;2023-02-19T03:30:50;96868.11;;;-1.25;100.0
64025;BME280;50266;57.446;26.936;2023-02-19T03:32:00;96872.23;;;-1.26;100.0
64025;BME280;50266;57.446;26.936;2023-02-19T03:32:53;96871.36;;;-1.27;100.0
64025;BME280;50266;57.446;26.936;2023-02-19T03:33:53;96869.29;;;-1.28;100.0
64025;BME280;50266;57.446;26.936;2023-02-19T03:34:59;96870.22;;;-1.29;100.0
64025;BME280;50266;57.446;26.936;2023-02-19T03:36:01;96879.41;;;-1.26;100.0
64025;BME280;50266;57.446;26.936;2023-02-19T03:36:59;96876.25;;;-1.29;100.0
64025;BME280;50266;57.446;26.936;2023-02-19T03:39:04;96874.2;;;-1.29;100.0
64025;BME280;50266;57.446;26.936;2023-02-19T03:40:03;96880.17;;;-1.3;100.0
64025;BME280;50266;57.446;26.936;2023-02-19T03:41:08;96886.76;;;-1.3;100.0
64025;BME280;50266;57.446;26.936;2023-02-19T03:42:13;96868.69;;;-1.3;100.0
64025;BME280;50266;57.446;26.936;2023-02-19T03:43:16;96881.5;;;-1.31;100.0
64025;BME280;50266;57.446;26.936;2023-02-19T03:44:25;96878.98;;;-1.31;100.0
64025;BME280;50266;57.446;26.936;2023-02-19T03:45:17;96875.22;;;-1.32;100.0
64025;BME280;50266;57.446;26.936;2023-02-19T03:46:14;96878.25;;;-1.3;100.0
64025;BME280;50266;57.446;26.936;2023-02-19T03:47:24;96886.04;;;-1.32;100.0
64025;BME280;50266;57.446;26.936;2023-02-19T03:48:28;96892.99;;;-1.31;100.0
64025;BME280;50266;57.446;26.936;2023-02-19T03:49:34;96896.78;;;-1.32;100.0
64025;BME280;50266;57.446;26.936;2023-02-19T03:50:28;96880.94;;;-1.31;100.0
64025;BME280;50266;57.446;26.936;2023-02-19T03:51:28;96898.09;;;-1.32;100.0
64025;BME280;50266;57.446;26.936;2023-02-19T03:52:32;96900.53;;;-1.32;100.0
64025;BME280;50266;57.446;26.936;2023-02-19T03:53:33;96901.97;;;-1.31;100.0
64025;BME280;50266;57.446;26.936;2023-02-19T03:54:33;96889.2;;;-1.3;100.0
64025;BME280;50266;57.446;26.936;2023-02-19T03:56:34;96894.62;;;-1.33;100.0
64025;BME280;50266;57.446;26.936;2023-02-19T03:58:43;96908.95;;;-1.33;100.0
64025;BME280;50266;57.446;26.936;2023-02-19T04:00:41;96894.85;;;-1.33;100.0
64025;BME280;50266;57.446;26.936;2023-02-19T04:01:40;96899.59;;;-1.34;100.0
64025;BME280;50266;57.446;26.936;2023-02-19T04:02:41;96898.92;;;-1.35;100.0
64025;BME280;50266;57.446;26.936;2023-02-19T04:03:51;96906.44;;;-1.33;100.0
64025;BME280;50266;57.446;26.936;2023-02-19T04:04:44;96903.45;;;-1.34;100.0
64025;BME280;50266;57.446;26.936;2023-02-19T04:05:49;96905.37;;;-1.33;100.0
64025;BME280;50266;57.446;26.936;2023-02-19T04:06:48;96901.55;;;-1.33;100.0
64025;BME280;50266;57.446;26.936;2023-02-19T04:07:51;96909.25;;;-1.33;100.0
64025;BME280;50266;57.446;26.936;2023-02-19T04:08:48;96903.88;;;-1.33;100.0
64025;BME280;50266;57.446;26.936;2023-02-19T04:09:48;96905.72;;;-1.32;100.0
64025;BME280;50266;57.446;26.936;2023-02-19T04:10:48;96909.41;;;-1.33;100.0
64025;BME280;50266;57.446;26.936;2023-02-19T04:11:49;96903.27;;;-1.34;100.0
64025;BME280;50266;57.446;26.936;2023-02-19T04:12:50;96911.91;;;-1.34;100.0
64025;BME280;50266;57.446;26.936;2023-02-19T04:13:55;96912.83;;;-1.33;100.0
64025;BME280;50266;57.446;26.936;2023-02-19T04:14:58;96909.59;;;-1.33;100.0
64025;BME280;50266;57.446;26.936;2023-02-19T04:15:55;96909.48;;;-1.32;100.0
64025;BME280;50266;57.446;26.936;2023-02-19T04:16:57;96905.85;;;-1.35;100.0
64025;BME280;50266;57.446;26.936;2023-02-19T04:17:56;96913.32;;;-1.33;100.0
64025;BME280;50266;57.446;26.936;2023-02-19T04:18:59;96925.33;;;-1.33;100.0
64025;BME280;50266;57.446;26.936;2023-02-19T04:19:57;96905.45;;;-1.33;100.0
64025;BME280;50266;57.446;26.936;2023-02-19T04:20:57;96911.25;;;-1.32;100.0
64025;BME280;50266;57.446;26.936;2023-02-19T04:21:57;96908.91;;;-1.34;100.0
64025;BME280;50266;57.446;26.936;2023-02-19T04:22:57;96922.16;;;-1.34;100.0
64025;BME280;50266;57.446;26.936;2023-02-19T04:23:58;96917.02;;;-1.34;100.0
64025;BME280;50266;57.446;26.936;2023-02-19T04:24:58;96913.73;;;-1.33;100.0
64025;BME280;50266;57.446;26.936;2023-02-19T04:25:58;96905.85;;;-1.35;100.0
64025;BME280;50266;57.446;26.936;2023-02-19T04:26:58;96916.06;;;-1.36;100.0
64025;BME280;50266;57.446;26.936;2023-02-19T04:27:58;96909.89;;;-1.37;100.0
64025;BME280;50266;57.446;26.936;2023-02-19T04:28:58;96912.89;;;-1.39;100.0
64025;BME280;50266;57.446;26.936;2023-02-19T04:29:58;96903.05;;;-1.39;100.0
64025;BME280;50266;57.446;26.936;2023-02-19T04:30:58;96911.84;;;-1.39;100.0
64025;BME280;50266;57.446;26.936;2023-02-19T04:31:58;96917.92;;;-1.37;100.0
64025;BME280;50266;57.446;26.936;2023-02-19T04:32:58;96917.28;;;-1.39;100.0
64025;BME280;50266;57.446;26.936;2023-02-19T04:33:58;96920.78;;;-1.39;100.0
64025;BME280;50266;57.446;26.936;2023-02-19T04:34:58;96911.31;;;-1.4;100.0
64025;BME280;50266;57.446;26.936;2023-02-19T04:35:58;96915.12;;;-1.4;100.0
64025;BME280;50266;57.446;26.936;2023-02-19T04:36:58;96899.86;;;-1.41;100.0
64025;BME280;50266;57.446;26.936;2023-02-19T04:37:58;96913.45;;;-1.39;100.0
64025;BME280;50266;57.446;26.936;2023-02-19T04:38:58;96908.17;;;-1.39;100.0
64025;BME280;50266;57.446;26.936;2023-02-19T04:39:58;96926.27;;;-1.4;100.0
64025;BME280;50266;57.446;26.936;2023-02-19T04:40:58;96919.77;;;-1.4;100.0
64025;BME280;50266;57.446;26.936;2023-02-19T04:41:58;96912.98;;;-1.39;100.0
64025;BME280;50266;57.446;26.936;2023-02-19T04:42:58;96913.64;;;-1.39;100.0
64025;BME280;50266;57.446;26.936;2023-02-19T04:43:58;96912.0;;;-1.41;100.0
64025;BME280;50266;57.446;26.936;2023-02-19T04:44:58;96923.75;;;-1.4;100.0
64025;BME280;50266;57.446;26.936;2023-02-19T04:45:58;96917.11;;;-1.38;100.0
64025;BME280;50266;57.446;26.936;2023-02-19T04:46:58;96914.77;;;-1.41;100.0
64025;BME280;50266;57.446;26.936;2023-02-19T04:47:58;96919.17;;;-1.39;100.0
64025;BME280;50266;57.446;26.936;2023-02-19T04:48:58;96921.7;;;-1.4;100.0
64025;BME280;50266;57.446;26.936;2023-02-19T04:49:58;96908.69;;;-1.39;100.0
64025;BME280;50266;57.446;26.936;2023-02-19T04:50:58;96911.47;;;-1.4;100.0
64025;BME280;50266;57.446;26.936;2023-02-19T04:51:58;96927.42;;;-1.4;100.0
64025;BME280;50266;57.446;26.936;2023-02-19T04:52:58;96919.12;;;-1.4;100.0
64025;BME280;50266;57.446;26.936;2023-02-19T04:53:58;96922.59;;;-1.41;100.0
64025;BME280;50266;57.446;26.936;2023-02-19T04:54:58;96935.59;;;-1.41;100.0
64025;BME280;50266;57.446;26.936;2023-02-19T04:56:04;96928.45;;;-1.41;100.0
64025;BME280;50266;57.446;26.936;2023-02-19T04:57:00;96932.35;;;-1.42;100.0
64025;BME280;50266;57.446;26.936;2023-02-19T04:58:00;96913.56;;;-1.42;100.0
64025;BME280;50266;57.446;26.936;2023-02-19T04:59:00;96923.33;;;-1.42;100.0
64025;BME280;50266;57.446;26.936;2023-02-19T05:00:00;96924.14;;;-1.42;100.0
64025;BME280;50266;57.446;26.936;2023-02-19T05:01:00;96918.82;;;-1.41;100.0
64025;BME280;50266;57.446;26.936;2023-02-19T05:02:00;96910.19;;;-1.43;100.0
64025;BME280;50266;57.446;26.936;2023-02-19T05:03:00;96917.72;;;-1.46;100.0
64025;BME280;50266;57.446;26.936;2023-02-19T05:04:00;96930.56;;;-1.44;100.0
64025;BME280;50266;57.446;26.936;2023-02-19T05:05:00;96926.68;;;-1.42;100.0
64025;BME280;50266;57.446;26.936;2023-02-19T05:06:01;96917.6;;;-1.44;100.0
64025;BME280;50266;57.446;26.936;2023-02-19T05:07:01;96931.05;;;-1.45;100.0
64025;BME280;50266;57.446;26.936;2023-02-19T05:08:00;96930.42;;;-1.44;100.0
64025;BME280;50266;57.446;26.936;2023-02-19T05:09:00;96934.15;;;-1.45;100.0
64025;BME280;50266;57.446;26.936;2023-02-19T05:10:00;96944.22;;;-1.43;100.0
64025;BME280;50266;57.446;26.936;2023-02-19T05:11:01;96928.12;;;-1.46;100.0
64025;BME280;50266;57.446;26.936;2023-02-19T05:12:00;96944.26;;;-1.46;100.0
64025;BME280;50266;57.446;26.936;2023-02-19T05:13:00;96929.8;;;-1.47;100.0
64025;BME280;50266;57.446;26.936;2023-02-19T05:14:00;96936.62;;;-1.47;100.0
64025;BME280;50266;57.446;26.936;2023-02-19T05:15:00;96936.44;;;-1.49;100.0
64025;BME280;50266;57.446;26.936;2023-02-19T05:16:02;96932.66;;;-1.47;100.0
64025;BME280;50266;57.446;26.936;2023-02-19T05:17:00;96947.88;;;-1.48;100.0
64025;BME280;50266;57.446;26.936;2023-02-19T05:18:00;96937.3;;;-1.5;100.0
64025;BME280;50266;57.446;26.936;2023-02-19T05:19:00;96945.17;;;-1.52;100.0
64025;BME280;50266;57.446;26.936;2023-02-19T05:20:00;96948.1;;;-1.52;100.0
64025;BME280;50266;57.446;26.936;2023-02-19T05:21:01;96943.33;;;-1.53;100.0
64025;BME280;50266;57.446;26.936;2023-02-19T05:22:00;96936.12;;;-1.52;100.0
64025;BME280;50266;57.446;26.936;2023-02-19T05:23:00;96943.47;;;-1.54;100.0
64025;BME280;50266;57.446;26.936;2023-02-19T05:24:01;96947.66;;;-1.53;100.0
64025;BME280;50266;57.446;26.936;2023-02-19T05:25:01;96956.88;;;-1.56;100.0
64025;BME280;50266;57.446;26.936;2023-02-19T05:26:07;96943.65;;;-1.57;100.0
64025;BME280;50266;57.446;26.936;2023-02-19T05:27:03;96946.73;;;-1.59;100.0
64025;BME280;50266;57.446;26.936;2023-02-19T05:28:03;96973.91;;;-1.6;100.0
64025;BME280;50266;57.446;26.936;2023-02-19T05:29:03;96963.22;;;-1.59;100.0
64025;BME280;50266;57.446;26.936;2023-02-19T05:30:04;96951.55;;;-1.6;100.0
64025;BME280;50266;57.446;26.936;2023-02-19T05:31:05;96964.84;;;-1.59;100.0
64025;BME280;50266;57.446;26.936;2023-02-19T05:32:03;96954.17;;;-1.6;100.0
64025;BME280;50266;57.446;26.936;2023-02-19T05:33:03;96952.31;;;-1.59;100.0
64025;BME280;50266;57.446;26.936;2023-02-19T05:34:03;96951.81;;;-1.61;100.0
64025;BME280;50266;57.446;26.936;2023-02-19T05:35:04;96936.82;;;-1.62;100.0
64025;BME280;50266;57.446;26.936;2023-02-19T05:36:05;96971.34;;;-1.63;100.0
64025;BME280;50266;57.446;26.936;2023-02-19T05:37:04;96952.72;;;-1.64;100.0
64025;BME280;50266;57.446;26.936;2023-02-19T05:38:04;96961.64;;;-1.65;100.0
64025;BME280;50266;57.446;26.936;2023-02-19T05:39:04;96969.36;;;-1.65;100.0
64025;BME280;50266;57.446;26.936;2023-02-19T05:40:04;96966.2;;;-1.67;100.0
64025;BME280;50266;57.446;26.936;2023-02-19T05:41:11;96963.7;;;-1.68;100.0
64025;BME280;50266;57.446;26.936;2023-02-19T05:42:08;96974.56;;;-1.69;100.0